Terminal Aerodrome Forecast
Issued by NWS

Home | Current Version | Previous Version | Text Only | Print | Product List | Glossary On
Versions: 1 2 3 4 5 6 7 8 9 10 11 12 13 14 15
000
FTUS41 KCAR 172339
TAFHUL
TAF
KHUL 172339Z 1800/1824 03004KT P6SM FEW250
     FM180500 09005KT P6SM SCT250
     FM180800 10006KT 5SM BR SCT030
     FM181000 10006KT 1SM BR BKN020
     FM181400 11006KT 3SM -SN BR OVC015
     FM182000 11005KT 6SM -SN BR OVC030=

USA.gov is the U.S. government's official web portal to all federal, state and local government web resources and services.